MMAA/ACA METAR and TAF weather

Enter ICAO airport designator
Station Type Date Time Source
MMAA METAR 2019/02/21 11:49 UTC NOAA

MMAA 211149Z 32003KT 6SM SKC 22/20 A2986 RMK SLP105 57007 955 HZY CU S


Station Type Date Time Source
MMAA Decoded METAR 2019/02/21 11:49 UTC NOAA

Acapulco / G. Alvarez, Mexico (MMAA) 16-46N 099-45W
Feb 21, 2019 - 06:49 AM EST / 2019.02.21 1149 UTC
Wind: from the NW (320 degrees) at 3 MPH (3 KT):0
Visibility: 6 mile(s):0
Sky conditions: clear
Temperature: 71 F (22 C)
Dew Point: 68 F (20 C)
Relative Humidity: 88%
Pressure (altimeter): 29.86 in. Hg (1011 hPa)
Pressure tendency: 0.02 inches (0.7 hPa) lower than three hours ago
ob: MMAA 211149Z 32003KT 6SM SKC 22/20 A2986 RMK SLP105 57007 955 HZY CU S
cycle: 12

Station Type Date Time Source
MMAA TAF 2019/02/21 12:57 UTC NOAA

TAF TAF MMAA 210953Z 2112/2218 00000KT 6SM HZ SKC TX29/2120Z TN22/2112Z
FM211800 25010KT P6SM SCT020 SCT090
FM220600 33004KT P6SM SKC
BECMG 2210/2212 00000KT


Example: see airport list